Time;durP1;ratioP1;P1;durP2;ratioP2;P2;SDS_P1;SDS_P2;PMS_P1;PMS_P2;Temp;Humidity;BMP_temperature;BMP_pressure;BME280_temperature;BME280_humidity;BME280_pressure;Samples;Min_cycle;Max_cycle;Signal;HPM_P1;HPM_P2
2022/04/22 00:00:18;;;;;;;;;2.00;2.00;;;;;;;;5076952;27;45374;-65
2022/04/22 00:02:43;;;;;;;;;5.00;3.00;;;;;;;;5077391;27;45225;-65
2022/04/22 00:05:09;;;;;;;;;3.00;3.00;;;;;;;;5076249;27;45795;-68
2022/04/22 00:07:34;;;;;;;;;5.25;4.00;;;;;;;;5074036;27;45390;-68
2022/04/22 00:09:59;;;;;;;;;2.75;2.25;;;;;;;;5076012;28;45444;-68
2022/04/22 00:12:24;;;;;;;;;2.75;2.50;;;;;;;;5076214;27;45374;-68
2022/04/22 00:14:50;;;;;;;;;4.75;3.00;;;;;;;;5075935;27;45429;-68
2022/04/22 00:17:15;;;;;;;;;3.00;3.00;;;;;;;;5076111;28;45347;-68
2022/04/22 00:19:40;;;;;;;;;3.00;3.00;;;;;;;;5075090;28;45632;-68
2022/04/22 00:22:06;;;;;;;;;3.00;3.00;;;;;;;;5066686;28;45497;-68
2022/04/22 00:24:31;;;;;;;;;2.00;2.00;;;;;;;;5077079;27;45558;-68
2022/04/22 00:26:56;;;;;;;;;3.25;3.25;;;;;;;;5075193;28;45622;-68
2022/04/22 00:29:21;;;;;;;;;4.00;4.00;;;;;;;;5067559;28;45377;-68
2022/04/22 00:31:47;;;;;;;;;2.25;2.25;;;;;;;;5072560;28;45283;-68
2022/04/22 00:34:12;;;;;;;;;5.50;3.25;;;;;;;;5069926;27;45388;-68
2022/04/22 00:36:37;;;;;;;;;3.00;3.00;;;;;;;;5075030;27;45558;-68
2022/04/22 00:39:02;;;;;;;;;4.00;4.00;;;;;;;;5076500;27;45598;-68
2022/04/22 00:41:27;;;;;;;;;2.75;2.75;;;;;;;;5075409;28;45601;-68
2022/04/22 00:43:53;;;;;;;;;3.00;3.00;;;;;;;;5076321;27;46652;-68
2022/04/22 00:46:18;;;;;;;;;2.00;2.00;;;;;;;;5076054;27;45466;-68
2022/04/22 00:48:44;;;;;;;;;3.75;3.75;;;;;;;;5076650;27;45455;-68
2022/04/22 00:51:10;;;;;;;;;2.25;2.25;;;;;;;;5075497;28;45362;-68
2022/04/22 00:53:39;;;;;;;;;3.50;3.50;;;;;;;;5075810;27;46087;-68
2022/04/22 00:56:06;;;;;;;;;2.25;2.25;;;;;;;;5075047;28;45883;-68
2022/04/22 00:58:32;;;;;;;;;2.75;2.75;;;;;;;;5074320;27;45374;-68
2022/04/22 01:00:57;;;;;;;;;5.00;3.75;;;;;;;;5077998;27;45533;-68
2022/04/22 01:03:23;;;;;;;;;4.00;4.00;;;;;;;;5074346;28;45976;-68
2022/04/22 01:11:17;;;;;;;;;3.00;3.00;;;;;;;;5075749;28;45374;-68
2022/04/22 01:13:43;;;;;;;;;3.25;3.25;;;;;;;;5076654;27;47383;-68
2022/04/22 01:16:08;;;;;;;;;3.25;2.25;;;;;;;;5076993;27;45295;-68
2022/04/22 01:18:34;;;;;;;;;4.00;4.00;;;;;;;;5074276;27;45550;-68
2022/04/22 01:21:02;;;;;;;;;3.50;2.00;;;;;;;;5075167;27;45507;-68
2022/04/22 01:23:27;;;;;;;;;2.50;2.50;;;;;;;;5073811;28;46733;-68
2022/04/22 01:25:53;;;;;;;;;3.00;3.00;;;;;;;;5077464;27;45382;-68
2022/04/22 01:28:18;;;;;;;;;2.00;2.00;;;;;;;;5074443;28;45225;-68
2022/04/22 01:30:44;;;;;;;;;2.75;1.75;;;;;;;;5077819;27;45428;-68
2022/04/22 01:33:09;;;;;;;;;2.75;2.75;;;;;;;;5074974;27;45586;-68
2022/04/22 01:35:34;;;;;;;;;3.75;3.75;;;;;;;;5076614;27;45327;-68
2022/04/22 01:37:59;;;;;;;;;3.00;3.00;;;;;;;;5076562;27;45421;-68
2022/04/22 01:40:24;;;;;;;;;4.75;3.00;;;;;;;;5074605;28;45442;-68
2022/04/22 01:42:50;;;;;;;;;4.00;3.00;;;;;;;;5073448;28;46175;-65
2022/04/22 01:45:15;;;;;;;;;3.50;2.00;;;;;;;;5076051;27;45374;-65
2022/04/22 01:47:40;;;;;;;;;3.00;3.00;;;;;;;;5075279;27;45379;-65
2022/04/22 01:50:06;;;;;;;;;3.00;3.00;;;;;;;;5074131;28;45493;-66
2022/04/22 01:52:32;;;;;;;;;2.50;2.50;;;;;;;;5073963;27;46495;-65
2022/04/22 01:54:57;;;;;;;;;4.00;4.00;;;;;;;;5073811;27;45389;-65
2022/04/22 01:57:22;;;;;;;;;3.50;3.00;;;;;;;;5061120;27;45434;-65
2022/04/22 01:59:48;;;;;;;;;3.25;3.25;;;;;;;;5074551;27;45457;-66
2022/04/22 02:02:14;;;;;;;;;3.00;3.00;;;;;;;;5075148;27;45495;-65
2022/04/22 02:04:40;;;;;;;;;4.25;3.00;;;;;;;;5074048;28;45514;-65
2022/04/22 02:07:05;;;;;;;;;3.00;3.00;;;;;;;;5075329;27;45456;-65
2022/04/22 02:09:31;;;;;;;;;1.50;1.50;;;;;;;;5073893;28;45362;-65
2022/04/22 02:11:59;;;;;;;;;2.25;2.00;;;;;;;;5074068;28;45479;-66
2022/04/22 02:14:25;;;;;;;;;4.75;4.00;;;;;;;;5075022;28;45361;-65
2022/04/22 02:16:50;;;;;;;;;3.00;3.00;;;;;;;;5075782;27;45256;-65
2022/04/22 02:19:15;;;;;;;;;3.75;2.50;;;;;;;;5075222;27;45260;-65
2022/04/22 02:21:41;;;;;;;;;2.25;2.00;;;;;;;;5075259;27;45509;-65
2022/04/22 02:24:06;;;;;;;;;2.00;2.00;;;;;;;;5074140;28;45470;-65
2022/04/22 02:28:31;;;;;;;;;3.25;3.25;;;;;;;;5064662;28;45399;-65
2022/04/22 02:29:17;;;;;;;;;2.00;2.00;;;;;;;;5074615;28;45370;-65
2022/04/22 02:31:43;;;;;;;;;7.75;4.25;;;;;;;;5073945;27;46147;-65
2022/04/22 02:34:09;;;;;;;;;2.00;2.00;;;;;;;;5075353;27;45959;-65
2022/04/22 02:36:34;;;;;;;;;3.25;3.25;;;;;;;;5073110;28;45317;-65
2022/04/22 02:38:59;;;;;;;;;3.25;3.25;;;;;;;;5058699;27;45376;-65
2022/04/22 02:46:52;;;;;;;;;3.00;3.00;;;;;;;;5073265;28;45580;-68
2022/04/22 02:49:17;;;;;;;;;2.00;2.00;;;;;;;;5077744;27;45372;-68
2022/04/22 02:51:42;;;;;;;;;2.00;2.00;;;;;;;;5076868;28;46465;-68
2022/04/22 02:54:08;;;;;;;;;3.00;2.00;;;;;;;;5077331;27;45386;-66
2022/04/22 02:56:33;;;;;;;;;4.00;3.00;;;;;;;;5078379;27;45516;-65
2022/04/22 02:58:59;;;;;;;;;3.00;2.00;;;;;;;;5078259;27;45456;-65
2022/04/22 03:01:24;;;;;;;;;4.00;4.00;;;;;;;;5076695;28;46463;-65
2022/04/22 03:03:50;;;;;;;;;2.25;2.25;;;;;;;;5076376;28;45400;-65
2022/04/22 03:06:15;;;;;;;;;5.00;4.00;;;;;;;;5076650;27;45437;-66
2022/04/22 03:08:40;;;;;;;;;2.00;2.00;;;;;;;;5064827;28;46099;-68
2022/04/22 03:11:06;;;;;;;;;2.75;2.75;;;;;;;;5073731;28;45472;-68
2022/04/22 03:13:31;;;;;;;;;2.50;2.50;;;;;;;;5076348;27;45440;-68
2022/04/22 03:15:57;;;;;;;;;3.75;3.00;;;;;;;;5076194;28;45386;-66
2022/04/22 03:18:22;;;;;;;;;5.50;4.00;;;;;;;;5076275;28;45302;-67
2022/04/22 03:20:48;;;;;;;;;2.00;2.00;;;;;;;;5077088;27;46393;-67
2022/04/22 03:23:13;;;;;;;;;2.00;2.00;;;;;;;;5076660;28;45520;-67
2022/04/22 03:25:40;;;;;;;;;1.00;1.00;;;;;;;;5076466;27;45283;-67
2022/04/22 03:28:05;;;;;;;;;4.50;4.00;;;;;;;;5075984;28;45696;-67
2022/04/22 03:30:34;;;;;;;;;2.50;2.25;;;;;;;;5075611;28;46055;-67
2022/04/22 03:32:59;;;;;;;;;4.00;2.75;;;;;;;;5076673;27;45687;-67
2022/04/22 03:35:24;;;;;;;;;1.00;1.00;;;;;;;;5076917;28;45357;-67
2022/04/22 03:37:49;;;;;;;;;3.25;3.25;;;;;;;;5076082;28;45387;-67
2022/04/22 03:40:14;;;;;;;;;5.00;3.00;;;;;;;;5076225;28;45443;-67
2022/04/22 03:42:41;;;;;;;;;4.00;3.00;;;;;;;;5069921;28;45564;-67
2022/04/22 03:45:06;;;;;;;;;4.00;3.75;;;;;;;;5074946;28;45496;-67
2022/04/22 03:47:31;;;;;;;;;3.50;3.50;;;;;;;;5066533;27;45232;-67
2022/04/22 03:49:57;;;;;;;;;2.50;2.50;;;;;;;;5074189;28;45517;-67
2022/04/22 03:52:22;;;;;;;;;3.00;3.00;;;;;;;;5071344;27;45275;-68
2022/04/22 03:54:47;;;;;;;;;3.25;3.25;;;;;;;;5076355;27;45415;-68
2022/04/22 03:59:57;;;;;;;;;3.75;3.75;;;;;;;;5073587;27;45547;-67
2022/04/22 04:02:22;;;;;;;;;3.00;3.00;;;;;;;;5078610;27;45469;-67
2022/04/22 04:04:50;;;;;;;;;1.75;1.75;;;;;;;;5078858;27;45421;-67
2022/04/22 04:07:16;;;;;;;;;4.00;3.00;;;;;;;;5076713;27;45402;-67
2022/04/22 04:17:53;;;;;;;;;2.75;2.75;;;;;;;;5073105;28;45417;-67
2022/04/22 04:23:20;;;;;;;;;3.25;3.00;;;;;;;;5077455;27;45382;-67
2022/04/22 04:25:47;;;;;;;;;3.00;3.00;;;;;;;;5075070;27;45509;-67
2022/04/22 04:28:13;;;;;;;;;2.25;2.25;;;;;;;;5074532;27;45744;-67
2022/04/22 04:30:42;;;;;;;;;3.50;3.50;;;;;;;;5075394;28;45725;-67
2022/04/22 04:33:07;;;;;;;;;2.75;2.75;;;;;;;;5077288;27;45683;-67
2022/04/22 04:35:34;;;;;;;;;2.25;2.25;;;;;;;;5077971;27;45354;-67
2022/04/22 04:37:59;;;;;;;;;2.00;2.00;;;;;;;;5074748;28;45527;-67
2022/04/22 04:40:24;;;;;;;;;4.50;3.25;;;;;;;;5074793;28;47274;-68
2022/04/22 04:42:53;;;;;;;;;2.75;2.75;;;;;;;;5074845;28;45449;-68
2022/04/22 04:45:18;;;;;;;;;2.00;2.00;;;;;;;;5077667;27;45491;-67
2022/04/22 04:47:43;;;;;;;;;3.00;3.00;;;;;;;;5075975;27;45532;-67
2022/04/22 04:50:09;;;;;;;;;3.00;3.00;;;;;;;;5074794;28;45448;-68
2022/04/22 04:52:35;;;;;;;;;4.00;3.00;;;;;;;;5076303;27;45451;-67
2022/04/22 04:55:01;;;;;;;;;3.00;3.00;;;;;;;;5074379;28;45474;-67
2022/04/22 04:57:26;;;;;;;;;4.25;3.25;;;;;;;;5075357;28;45298;-67
2022/04/22 04:59:51;;;;;;;;;3.75;3.75;;;;;;;;5075023;28;46286;-67
2022/04/22 05:02:16;;;;;;;;;3.00;3.00;;;;;;;;5075423;28;45212;-67
2022/04/22 05:04:42;;;;;;;;;2.75;2.00;;;;;;;;5074697;28;45587;-67
2022/04/22 05:07:07;;;;;;;;;3.00;2.25;;;;;;;;5076942;27;45266;-67
2022/04/22 05:09:32;;;;;;;;;3.00;3.00;;;;;;;;5074186;28;46345;-68
2022/04/22 05:11:57;;;;;;;;;3.00;3.00;;;;;;;;5074245;27;45684;-67
2022/04/22 05:14:25;;;;;;;;;2.00;1.00;;;;;;;;5077713;27;45523;-67
2022/04/22 05:16:50;;;;;;;;;4.00;4.00;;;;;;;;5076742;27;45477;-67
2022/04/22 05:19:15;;;;;;;;;3.50;3.50;;;;;;;;5077293;27;46181;-67
2022/04/22 05:21:40;;;;;;;;;3.00;3.00;;;;;;;;5074854;28;45385;-67
2022/04/22 05:24:06;;;;;;;;;3.00;3.00;;;;;;;;5074474;27;45427;-67
2022/04/22 05:26:32;;;;;;;;;9.00;3.75;;;;;;;;5075417;27;45592;-67
2022/04/22 05:28:57;;;;;;;;;4.25;2.75;;;;;;;;5074579;27;46220;-68
2022/04/22 05:34:06;;;;;;;;;4.00;4.00;;;;;;;;5074320;28;45477;-68
2022/04/22 05:36:32;;;;;;;;;2.50;2.50;;;;;;;;5073996;28;45522;-67
2022/04/22 05:38:57;;;;;;;;;4.00;2.25;;;;;;;;5075366;27;45487;-68
2022/04/22 05:41:22;;;;;;;;;4.00;4.00;;;;;;;;5076097;27;45385;-67
2022/04/22 05:43:47;;;;;;;;;3.00;2.25;;;;;;;;5075751;27;45436;-67
2022/04/22 05:46:13;;;;;;;;;3.50;3.50;;;;;;;;5077080;27;45248;-67
2022/04/22 05:48:39;;;;;;;;;4.50;4.50;;;;;;;;5074184;27;45384;-67
2022/04/22 05:51:04;;;;;;;;;4.00;4.00;;;;;;;;5074277;27;45417;-67
2022/04/22 05:53:30;;;;;;;;;3.00;3.00;;;;;;;;5074911;28;45459;-67
2022/04/22 05:55:55;;;;;;;;;4.25;4.25;;;;;;;;5073834;27;45419;-68
2022/04/22 05:58:20;;;;;;;;;3.25;3.25;;;;;;;;5066406;28;46241;-67
2022/04/22 06:00:46;;;;;;;;;3.00;3.00;;;;;;;;5074224;27;45264;-67
2022/04/22 06:03:11;;;;;;;;;3.50;3.50;;;;;;;;5074198;27;45387;-67
2022/04/22 06:05:36;;;;;;;;;3.00;3.00;;;;;;;;5075061;27;45246;-67
2022/04/22 06:10:50;;;;;;;;;4.25;3.25;;;;;;;;5074155;27;45469;-68
2022/04/22 06:13:15;;;;;;;;;4.75;3.25;;;;;;;;5075892;27;45387;-67
2022/04/22 06:15:41;;;;;;;;;4.00;4.00;;;;;;;;5073701;28;45326;-67
2022/04/22 06:18:06;;;;;;;;;3.50;3.50;;;;;;;;5074322;27;45487;-67
2022/04/22 06:20:31;;;;;;;;;3.00;3.00;;;;;;;;5072843;28;45364;-68
2022/04/22 06:22:57;;;;;;;;;7.50;5.00;;;;;;;;5072654;27;45504;-70
2022/04/22 06:25:23;;;;;;;;;4.00;4.00;;;;;;;;5077574;28;45453;-68
2022/04/22 06:27:48;;;;;;;;;2.75;2.75;;;;;;;;5076803;28;46406;-67
2022/04/22 06:30:15;;;;;;;;;2.75;2.75;;;;;;;;5077388;28;45407;-68
2022/04/22 06:32:42;;;;;;;;;3.75;3.00;;;;;;;;5074200;28;45197;-70
2022/04/22 06:35:08;;;;;;;;;3.50;3.25;;;;;;;;5077289;27;45440;-69
2022/04/22 06:37:34;;;;;;;;;4.00;3.00;;;;;;;;5073645;27;46759;-67
2022/04/22 06:45:46;;;;;;;;;3.25;3.00;;;;;;;;5063294;27;45277;-68
2022/04/22 06:48:12;;;;;;;;;5.50;4.00;;;;;;;;5075550;27;46216;-68
2022/04/22 06:50:37;;;;;;;;;4.00;4.00;;;;;;;;5074063;27;45329;-68
2022/04/22 06:53:03;;;;;;;;;4.50;4.50;;;;;;;;5074915;28;45367;-68
2022/04/22 06:55:28;;;;;;;;;3.00;3.00;;;;;;;;5071444;27;45643;-69
2022/04/22 06:57:56;;;;;;;;;3.00;3.00;;;;;;;;5065807;27;45492;-69
2022/04/22 07:00:21;;;;;;;;;2.50;2.50;;;;;;;;5078148;27;45459;-69
2022/04/22 07:02:47;;;;;;;;;2.50;2.50;;;;;;;;5077750;27;45516;-69
2022/04/22 07:05:12;;;;;;;;;3.25;3.25;;;;;;;;5078102;27;45554;-69
2022/04/22 07:07:38;;;;;;;;;4.50;4.50;;;;;;;;5075637;28;46630;-68
2022/04/22 07:10:03;;;;;;;;;4.00;4.00;;;;;;;;5076289;27;45492;-69
2022/04/22 07:12:31;;;;;;;;;3.25;3.25;;;;;;;;5078750;27;45441;-69
2022/04/22 07:15:03;;;;;;;;;4.25;3.75;;;;;;;;5077797;27;45406;-69
2022/04/22 07:17:29;;;;;;;;;3.00;3.00;;;;;;;;5075927;28;46171;-68
2022/04/22 07:19:54;;;;;;;;;2.00;2.00;;;;;;;;5075720;28;45283;-69
2022/04/22 07:22:20;;;;;;;;;3.25;2.50;;;;;;;;5077173;27;45303;-69
2022/04/22 07:24:45;;;;;;;;;2.75;2.75;;;;;;;;5076778;28;45493;-72
2022/04/22 07:27:11;;;;;;;;;6.00;4.50;;;;;;;;5076854;27;46827;-67
2022/04/22 07:29:36;;;;;;;;;3.00;3.00;;;;;;;;5078789;27;45511;-70
2022/04/22 07:32:02;;;;;;;;;6.50;4.00;;;;;;;;5074943;28;45519;-70
2022/04/22 07:34:27;;;;;;;;;3.75;3.75;;;;;;;;5075164;27;45535;-70
2022/04/22 07:36:52;;;;;;;;;3.75;3.75;;;;;;;;5076285;27;45455;-70
2022/04/22 07:39:18;;;;;;;;;2.25;2.25;;;;;;;;5076526;28;45601;-70
2022/04/22 07:41:44;;;;;;;;;2.50;2.50;;;;;;;;5071195;28;45372;-71
2022/04/22 07:47:02;;;;;;;;;5.25;3.50;;;;;;;;5075368;28;45354;-70
2022/04/22 07:49:29;;;;;;;;;4.00;3.00;;;;;;;;5075737;28;45444;-70
2022/04/22 07:51:54;;;;;;;;;1.75;1.75;;;;;;;;5075100;27;45302;-70
2022/04/22 07:54:20;;;;;;;;;4.50;4.50;;;;;;;;5076237;28;45401;-70
2022/04/22 07:56:45;;;;;;;;;2.75;2.75;;;;;;;;5076770;27;46334;-70
2022/04/22 07:59:11;;;;;;;;;4.50;4.50;;;;;;;;5076662;27;45394;-70
2022/04/22 08:01:36;;;;;;;;;2.00;2.00;;;;;;;;5075557;28;45430;-71
2022/04/22 08:04:03;;;;;;;;;4.25;4.00;;;;;;;;5075579;28;45421;-70
2022/04/22 08:06:29;;;;;;;;;4.00;3.75;;;;;;;;5076592;27;46349;-71
2022/04/22 08:08:54;;;;;;;;;3.25;3.25;;;;;;;;5076089;27;45390;-70
2022/04/22 08:11:20;;;;;;;;;5.00;3.25;;;;;;;;5076657;27;45600;-70
2022/04/22 08:13:45;;;;;;;;;4.50;4.00;;;;;;;;5075878;27;45529;-70
2022/04/22 08:16:11;;;;;;;;;4.00;2.50;;;;;;;;5074842;28;46810;-70
2022/04/22 08:18:36;;;;;;;;;4.50;3.50;;;;;;;;5078118;27;45546;-71
2022/04/22 08:21:02;;;;;;;;;2.00;2.00;;;;;;;;5077240;27;45297;-70
2022/04/22 08:23:27;;;;;;;;;3.75;3.75;;;;;;;;5062881;27;45537;-70
2022/04/22 08:25:52;;;;;;;;;4.00;4.00;;;;;;;;5072429;28;46341;-70
2022/04/22 08:28:18;;;;;;;;;8.50;4.00;;;;;;;;5078625;27;45486;-70
2022/04/22 08:30:43;;;;;;;;;3.50;3.50;;;;;;;;5075265;28;45402;-70
2022/04/22 08:33:08;;;;;;;;;2.25;2.25;;;;;;;;5074663;27;45538;-71
2022/04/22 08:35:35;;;;;;;;;3.50;3.25;;;;;;;;5076479;27;46274;-70
2022/04/22 08:38:03;;;;;;;;;4.25;4.25;;;;;;;;5074813;28;45495;-70
2022/04/22 08:40:30;;;;;;;;;5.00;5.00;;;;;;;;5075126;27;45907;-70
2022/04/22 08:42:57;;;;;;;;;3.00;3.00;;;;;;;;5074655;28;45539;-70
2022/04/22 08:45:25;;;;;;;;;2.75;2.75;;;;;;;;5075659;27;46447;-70
2022/04/22 08:50:35;;;;;;;;;4.50;3.50;;;;;;;;5076361;28;45283;-70
2022/04/22 08:53:04;;;;;;;;;4.00;4.00;;;;;;;;5074443;27;45414;-70
2022/04/22 08:55:30;;;;;;;;;3.75;3.75;;;;;;;;5075106;28;45374;-69
2022/04/22 08:57:55;;;;;;;;;2.00;2.00;;;;;;;;5075453;27;45477;-70
2022/04/22 09:00:22;;;;;;;;;4.25;4.25;;;;;;;;5074944;28;46179;-70
2022/04/22 09:02:47;;;;;;;;;4.75;4.00;;;;;;;;5075312;27;45393;-70
2022/04/22 09:05:13;;;;;;;;;5.00;5.00;;;;;;;;5074152;28;52176;-70
2022/04/22 09:07:42;;;;;;;;;4.50;4.50;;;;;;;;5074324;28;45364;-70
2022/04/22 09:10:07;;;;;;;;;6.75;5.00;;;;;;;;5074972;28;45405;-70
2022/04/22 09:12:34;;;;;;;;;2.75;2.75;;;;;;;;5076372;27;45505;-70
2022/04/22 09:15:00;;;;;;;;;4.00;4.00;;;;;;;;5074841;27;46807;-70
2022/04/22 09:17:26;;;;;;;;;3.25;3.25;;;;;;;;5074910;27;45449;-70
2022/04/22 09:19:52;;;;;;;;;5.00;5.00;;;;;;;;5072834;28;45364;-70
2022/04/22 09:22:18;;;;;;;;;4.00;3.50;;;;;;;;5074710;28;45459;-70
2022/04/22 09:24:47;;;;;;;;;4.00;4.00;;;;;;;;5074310;28;47167;-70
2022/04/22 09:27:13;;;;;;;;;4.50;4.50;;;;;;;;5075048;27;45333;-70
2022/04/22 09:29:41;;;;;;;;;4.50;4.50;;;;;;;;5060896;27;45513;-69
2022/04/22 09:32:09;;;;;;;;;4.00;3.75;;;;;;;;5075726;27;45448;-70
2022/04/22 09:34:37;;;;;;;;;6.25;5.25;;;;;;;;5070184;28;46175;-70
2022/04/22 09:43:10;;;;;;;;;3.75;3.75;;;;;;;;5072149;28;45313;-69
2022/04/22 09:45:36;;;;;;;;;5.50;5.50;;;;;;;;5074078;28;46393;-70
2022/04/22 09:48:01;;;;;;;;;4.75;4.00;;;;;;;;5075092;27;45412;-70
2022/04/22 09:50:46;;;;;;;;;5.50;4.25;;;;;;;;5075143;27;45510;-70
2022/04/22 09:53:12;;;;;;;;;6.00;3.75;;;;;;;;5076148;27;45263;-70
2022/04/22 09:55:48;;;;;;;;;3.50;3.50;;;;;;;;5075899;27;46032;-70
2022/04/22 09:58:20;;;;;;;;;5.25;4.75;;;;;;;;5073780;28;45379;-70
2022/04/22 10:00:47;;;;;;;;;5.00;3.25;;;;;;;;5077277;28;45522;-70
2022/04/22 10:03:13;;;;;;;;;5.00;5.00;;;;;;;;5079399;27;45281;-70
2022/04/22 10:05:39;;;;;;;;;6.00;4.00;;;;;;;;5078878;27;45504;-70
2022/04/22 10:08:04;;;;;;;;;4.75;3.50;;;;;;;;5074249;28;45276;-70
2022/04/22 10:10:31;;;;;;;;;3.75;3.75;;;;;;;;5071921;28;45478;-70
2022/04/22 10:12:57;;;;;;;;;5.50;5.50;;;;;;;;5078826;27;45552;-70
2022/04/22 10:15:25;;;;;;;;;3.50;3.50;;;;;;;;5076698;28;45421;-70
2022/04/22 10:17:51;;;;;;;;;5.75;5.75;;;;;;;;5077884;27;45414;-70
2022/04/22 10:20:16;;;;;;;;;4.50;4.50;;;;;;;;5078383;27;45453;-70
2022/04/22 10:22:42;;;;;;;;;5.00;4.00;;;;;;;;5076747;28;45613;-70
2022/04/22 10:25:09;;;;;;;;;7.25;5.25;;;;;;;;5077177;28;45446;-70
2022/04/22 10:27:35;;;;;;;;;3.00;3.00;;;;;;;;5077447;28;45441;-70
2022/04/22 10:30:01;;;;;;;;;6.00;6.00;;;;;;;;5076471;27;45304;-70
2022/04/22 10:32:27;;;;;;;;;2.50;2.25;;;;;;;;5077752;28;45370;-70
2022/04/22 10:35:03;;;;;;;;;4.25;4.25;;;;;;;;5077208;27;46571;-70
2022/04/22 10:37:28;;;;;;;;;7.00;6.00;;;;;;;;5077343;28;45442;-70
2022/04/22 10:39:54;;;;;;;;;5.00;5.00;;;;;;;;5076376;28;45357;-70
2022/04/22 10:42:28;;;;;;;;;4.00;4.00;;;;;;;;5077059;28;45407;-70
2022/04/22 10:47:40;;;;;;;;;3.50;3.50;;;;;;;;5077059;28;45300;-71
2022/04/22 10:50:21;;;;;;;;;4.00;3.50;;;;;;;;5066390;28;45296;-70
2022/04/22 10:53:03;;;;;;;;;4.00;4.00;;;;;;;;5072390;28;45484;-70
2022/04/22 10:55:32;;;;;;;;;5.75;4.75;;;;;;;;5074403;27;46480;-70
2022/04/22 10:58:13;;;;;;;;;5.25;5.00;;;;;;;;5074764;28;45381;-70
2022/04/22 11:00:40;;;;;;;;;3.75;3.75;;;;;;;;5077270;27;45466;-70
2022/04/22 11:03:16;;;;;;;;;3.75;3.50;;;;;;;;5075081;27;45247;-71
2022/04/22 11:05:46;;;;;;;;;5.00;5.00;;;;;;;;5076246;27;47411;-70
2022/04/22 11:08:18;;;;;;;;;6.25;4.25;;;;;;;;5073955;28;45411;-70
2022/04/22 11:10:44;;;;;;;;;4.00;4.00;;;;;;;;5074621;28;45992;-70
2022/04/22 11:13:24;;;;;;;;;6.00;6.00;;;;;;;;5074144;28;45305;-70
2022/04/22 11:15:51;;;;;;;;;4.00;4.00;;;;;;;;5078327;27;45672;-70
2022/04/22 11:18:17;;;;;;;;;4.25;4.00;;;;;;;;5073907;27;45350;-70
2022/04/22 11:20:50;;;;;;;;;3.00;3.00;;;;;;;;5076139;28;45285;-70
2022/04/22 11:23:15;;;;;;;;;4.00;4.00;;;;;;;;5075898;28;45331;-70
2022/04/22 11:25:41;;;;;;;;;4.50;4.25;;;;;;;;5074889;28;45719;-70
2022/04/22 11:28:07;;;;;;;;;4.25;4.25;;;;;;;;5074646;28;45268;-70
2022/04/22 11:30:33;;;;;;;;;4.25;4.25;;;;;;;;5074499;28;45418;-71
2022/04/22 11:33:17;;;;;;;;;5.50;5.50;;;;;;;;5075679;27;45537;-70
2022/04/22 11:35:42;;;;;;;;;5.00;5.00;;;;;;;;5075183;28;46253;-71
2022/04/22 11:38:07;;;;;;;;;6.00;6.00;;;;;;;;5066437;28;45330;-70
2022/04/22 11:40:37;;;;;;;;;4.00;4.00;;;;;;;;5068502;28;45308;-70
2022/04/22 11:43:14;;;;;;;;;4.50;4.25;;;;;;;;5074536;28;45388;-70
2022/04/22 11:45:42;;;;;;;;;5.00;5.00;;;;;;;;5074985;28;46477;-70
2022/04/22 11:48:08;;;;;;;;;2.50;2.50;;;;;;;;5074737;28;45479;-70
2022/04/22 11:50:38;;;;;;;;;4.50;3.50;;;;;;;;5074900;27;45377;-70
2022/04/22 11:54:34;;;;;;;;;6.00;4.00;;;;;;;;5059291;28;45734;-70
2022/04/22 11:57:00;;;;;;;;;5.25;5.00;;;;;;;;5030225;28;45393;-71
2022/04/22 11:59:25;;;;;;;;;6.50;6.50;;;;;;;;5032048;28;45368;-71
2022/04/22 12:10:06;;;;;;;;;4.25;4.25;;;;;;;;5029418;28;49230;-70
2022/04/22 12:12:31;;;;;;;;;4.75;4.50;;;;;;;;5030564;28;45352;-71
2022/04/22 12:15:04;;;;;;;;;7.00;5.50;;;;;;;;5013458;28;48322;-68
2022/04/22 12:17:30;;;;;;;;;6.00;4.50;;;;;;;;5031530;28;45347;-68
2022/04/22 12:19:55;;;;;;;;;6.25;5.00;;;;;;;;5025638;28;45447;-68
2022/04/22 12:22:21;;;;;;;;;3.50;3.00;;;;;;;;5030167;28;45446;-68
2022/04/22 12:25:25;;;;;;;;;4.75;4.00;;;;;;;;5029857;28;46206;-68
2022/04/22 12:28:16;;;;;;;;;5.25;4.25;;;;;;;;5016863;28;45408;-70
2022/04/22 12:30:43;;;;;;;;;5.00;3.00;;;;;;;;5012863;28;45619;-73
2022/04/22 12:33:16;;;;;;;;;5.50;5.50;;;;;;;;5012608;28;45675;-71
2022/04/22 12:35:42;;;;;;;;;5.25;5.25;;;;;;;;5015183;28;45570;-71
2022/04/22 12:38:07;;;;;;;;;5.25;5.25;;;;;;;;5017903;28;45401;-71
2022/04/22 12:40:50;;;;;;;;;5.25;4.00;;;;;;;;5022169;28;45521;-71
2022/04/22 12:43:28;;;;;;;;;4.50;4.50;;;;;;;;5032563;28;45597;-71
2022/04/22 12:54:08;;;;;;;;;4.00;4.00;;;;;;;;5027597;28;45479;-69
2022/04/22 12:56:37;;;;;;;;;3.50;3.50;;;;;;;;5025187;28;45516;-68
2022/04/22 12:59:03;;;;;;;;;5.00;5.00;;;;;;;;5028908;28;45336;-69
2022/04/22 13:01:29;;;;;;;;;5.00;5.00;;;;;;;;5029735;28;45401;-69
2022/04/22 13:03:57;;;;;;;;;5.00;4.75;;;;;;;;5027565;28;45534;-68
2022/04/22 13:06:38;;;;;;;;;4.75;4.75;;;;;;;;5007595;28;48080;-68
2022/04/22 13:09:03;;;;;;;;;5.00;5.00;;;;;;;;5000733;28;45294;-68
2022/04/22 13:11:29;;;;;;;;;6.00;4.25;;;;;;;;5008422;28;45282;-68
2022/04/22 13:13:54;;;;;;;;;4.00;3.75;;;;;;;;5016385;28;45377;-69
2022/04/22 13:16:19;;;;;;;;;3.50;3.50;;;;;;;;5012756;28;45278;-68
2022/04/22 13:18:45;;;;;;;;;4.25;4.25;;;;;;;;5003390;28;46093;-69
2022/04/22 13:21:10;;;;;;;;;5.00;4.75;;;;;;;;5031020;28;45418;-68
2022/04/22 13:23:36;;;;;;;;;4.50;3.25;;;;;;;;5017095;28;45423;-68
2022/04/22 13:26:01;;;;;;;;;4.00;4.00;;;;;;;;5016481;28;47286;-69
2022/04/22 13:28:26;;;;;;;;;4.25;4.25;;;;;;;;5011597;28;45536;-68
2022/04/22 13:30:52;;;;;;;;;4.00;4.00;;;;;;;;5005271;28;45288;-69
2022/04/22 13:33:17;;;;;;;;;6.00;5.00;;;;;;;;5014332;28;45546;-69
2022/04/22 13:35:42;;;;;;;;;5.25;5.25;;;;;;;;5009438;28;45478;-69
2022/04/22 13:38:08;;;;;;;;;5.00;5.00;;;;;;;;5016191;28;45472;-69
2022/04/22 13:40:33;;;;;;;;;4.00;4.00;;;;;;;;5011937;28;45447;-68
2022/04/22 13:42:58;;;;;;;;;5.00;5.00;;;;;;;;5015560;28;45340;-66
2022/04/22 13:53:35;;;;;;;;;4.25;4.25;;;;;;;;5020876;28;45343;-69
2022/04/22 13:56:00;;;;;;;;;5.75;5.00;;;;;;;;5016019;28;45489;-68
2022/04/22 13:58:26;;;;;;;;;4.00;4.00;;;;;;;;5011544;28;45355;-68
2022/04/22 14:00:52;;;;;;;;;4.25;4.25;;;;;;;;5013748;28;45466;-69
2022/04/22 14:03:18;;;;;;;;;4.25;4.25;;;;;;;;5000124;28;48503;-68
2022/04/22 14:05:44;;;;;;;;;3.50;3.50;;;;;;;;5012129;28;47381;-69
2022/04/22 14:08:09;;;;;;;;;5.75;4.50;;;;;;;;5015373;28;45802;-69
2022/04/22 14:10:34;;;;;;;;;4.25;3.25;;;;;;;;5008852;28;45418;-68
2022/04/22 14:13:00;;;;;;;;;6.00;4.00;;;;;;;;5010307;28;45473;-68
2022/04/22 14:15:25;;;;;;;;;6.25;4.50;;;;;;;;5000932;28;45581;-69
2022/04/22 14:17:52;;;;;;;;;4.75;4.75;;;;;;;;5000007;28;46093;-68
2022/04/22 14:20:17;;;;;;;;;2.50;2.50;;;;;;;;5013965;28;45529;-69
2022/04/22 14:22:42;;;;;;;;;5.25;4.00;;;;;;;;5010844;28;45264;-69
2022/04/22 14:25:08;;;;;;;;;1.50;1.50;;;;;;;;5013689;28;45443;-68
2022/04/22 14:27:33;;;;;;;;;6.00;6.00;;;;;;;;5026676;28;45555;-69
2022/04/22 14:29:58;;;;;;;;;4.75;4.75;;;;;;;;4999160;28;45503;-69
2022/04/22 14:32:24;;;;;;;;;4.25;4.25;;;;;;;;5003857;28;45302;-69
2022/04/22 14:34:50;;;;;;;;;5.00;5.00;;;;;;;;5015136;28;46430;-68
2022/04/22 14:37:15;;;;;;;;;5.00;5.00;;;;;;;;5013778;28;45304;-69
2022/04/22 14:39:41;;;;;;;;;6.25;5.00;;;;;;;;5015499;28;48445;-69
2022/04/22 14:42:07;;;;;;;;;4.00;4.00;;;;;;;;4999567;28;45318;-68
2022/04/22 14:44:32;;;;;;;;;3.00;3.00;;;;;;;;5013743;28;46576;-68
2022/04/22 14:46:58;;;;;;;;;5.00;5.00;;;;;;;;5018163;28;45419;-69
2022/04/22 14:49:23;;;;;;;;;3.50;3.50;;;;;;;;5010427;28;45296;-66
2022/04/22 14:51:50;;;;;;;;;5.00;4.00;;;;;;;;5011007;28;46961;-66
2022/04/22 14:54:15;;;;;;;;;4.75;4.75;;;;;;;;5014407;28;48425;-69
2022/04/22 14:56:40;;;;;;;;;4.00;4.00;;;;;;;;5015662;28;45391;-69
2022/04/22 14:59:06;;;;;;;;;2.75;2.75;;;;;;;;5015073;28;45328;-69
2022/04/22 15:01:31;;;;;;;;;3.75;2.00;;;;;;;;5020083;28;45559;-68
2022/04/22 15:03:56;;;;;;;;;5.00;3.75;;;;;;;;5016020;28;46396;-69
2022/04/22 15:06:22;;;;;;;;;6.00;3.00;;;;;;;;4997945;28;45567;-70
2022/04/22 15:08:47;;;;;;;;;4.75;4.00;;;;;;;;5014783;28;45394;-72
2022/04/22 15:11:12;;;;;;;;;3.75;3.75;;;;;;;;5020553;28;45440;-71
2022/04/22 15:13:37;;;;;;;;;5.25;5.25;;;;;;;;5020296;28;46368;-72
2022/04/22 15:16:03;;;;;;;;;5.50;4.25;;;;;;;;5013075;28;45489;-69
2022/04/22 15:24:17;;;;;;;;;4.00;4.00;;;;;;;;5017073;28;45811;-69
2022/04/22 15:26:43;;;;;;;;;3.25;3.25;;;;;;;;5000078;28;45323;-68
2022/04/22 15:29:09;;;;;;;;;5.50;4.25;;;;;;;;5009172;28;45570;-68
2022/04/22 15:31:34;;;;;;;;;5.75;5.50;;;;;;;;5013375;28;45581;-68
2022/04/22 15:34:00;;;;;;;;;4.00;4.00;;;;;;;;5024720;28;45974;-68
2022/04/22 15:36:25;;;;;;;;;4.00;4.00;;;;;;;;5021521;28;45364;-68
2022/04/22 15:38:53;;;;;;;;;5.00;5.00;;;;;;;;5015829;28;45278;-69
2022/04/22 15:41:22;;;;;;;;;5.00;5.00;;;;;;;;5012498;28;45442;-68
2022/04/22 15:43:51;;;;;;;;;5.00;5.00;;;;;;;;5007018;28;46342;-68
2022/04/22 15:46:16;;;;;;;;;5.75;4.75;;;;;;;;5003374;28;45666;-68
2022/04/22 15:48:42;;;;;;;;;5.00;4.00;;;;;;;;5012528;28;45465;-68
2022/04/22 15:51:09;;;;;;;;;5.50;5.00;;;;;;;;5014418;28;45499;-68
2022/04/22 15:53:34;;;;;;;;;4.25;3.25;;;;;;;;5001185;28;46950;-68
2022/04/22 15:56:00;;;;;;;;;4.00;4.00;;;;;;;;5010000;28;45520;-68
2022/04/22 15:58:25;;;;;;;;;4.75;4.00;;;;;;;;5010207;28;45347;-68
2022/04/22 16:00:50;;;;;;;;;4.00;4.00;;;;;;;;5003068;28;45363;-68